sensor_id;sensor_type;location;lat;lon;timestamp;pressure;altitude;pressure_sealevel;temperature;humidity
55994;BME280;67425;52.126;20.638;2023-04-12T00:01:18;57343.97;;;-144.78;53.50
55994;BME280;67425;52.126;20.638;2023-04-12T00:03:44;57323.22;;;-144.78;52.02
55994;BME280;67425;52.126;20.638;2023-04-12T00:06:17;57327.34;;;-144.78;52.10
55994;BME280;67425;52.126;20.638;2023-04-12T00:08:42;57327.34;;;-144.78;53.12
55994;BME280;67425;52.126;20.638;2023-04-12T00:11:11;57335.66;;;-144.78;53.39
55994;BME280;67425;52.126;20.638;2023-04-12T00:13:36;57337.75;;;-144.78;53.69
55994;BME280;67425;52.126;20.638;2023-04-12T00:16:01;57348.13;;;-144.78;54.53
55994;BME280;67425;52.126;20.638;2023-04-12T00:18:27;57350.19;;;-144.78;55.29
55994;BME280;67425;52.126;20.638;2023-04-12T00:20:54;57329.44;;;-144.78;53.84
55994;BME280;67425;52.126;20.638;2023-04-12T00:23:19;57337.75;;;-144.78;53.15
55994;BME280;67425;52.126;20.638;2023-04-12T00:25:45;57348.13;;;-144.78;54.57
55994;BME280;67425;52.126;20.638;2023-04-12T00:28:10;57341.91;;;-144.78;54.08
55994;BME280;67425;52.126;20.638;2023-04-12T00:30:36;57358.50;;;-144.78;55.76
55994;BME280;67425;52.126;20.638;2023-04-12T00:33:01;57360.59;;;-144.78;56.25
55994;BME280;67425;52.126;20.638;2023-04-12T00:35:26;57339.81;;;-144.78;54.05
55994;BME280;67425;52.126;20.638;2023-04-12T00:37:52;57308.66;;;-144.78;52.60
55994;BME280;67425;52.126;20.638;2023-04-12T00:40:17;57327.34;;;-144.78;53.13
55994;BME280;67425;52.126;20.638;2023-04-12T00:42:42;57341.91;;;-144.78;54.90
55994;BME280;67425;52.126;20.638;2023-04-12T00:45:08;57310.75;;;-144.78;51.80
55994;BME280;67425;52.126;20.638;2023-04-12T00:47:34;57356.44;;;-144.78;53.73
55994;BME280;67425;52.126;20.638;2023-04-12T00:50:01;57352.28;;;-144.78;53.97
55994;BME280;67425;52.126;20.638;2023-04-12T00:52:28;57346.06;;;-144.78;53.98
55994;BME280;67425;52.126;20.638;2023-04-12T00:54:59;57352.28;;;-144.78;54.47
55994;BME280;67425;52.126;20.638;2023-04-12T00:57:25;57337.75;;;-144.78;54.19
55994;BME280;67425;52.126;20.638;2023-04-12T00:59:50;57354.34;;;-144.78;54.08
55994;BME280;67425;52.126;20.638;2023-04-12T01:02:15;57319.06;;;-144.78;52.81
55994;BME280;67425;52.126;20.638;2023-04-12T01:04:41;57298.28;;;-144.78;52.81
55994;BME280;67425;52.126;20.638;2023-04-12T01:10:08;57314.91;;;-144.78;52.50
55994;BME280;67425;52.126;20.638;2023-04-12T01:13:04;57333.59;;;-144.78;53.24
55994;BME280;67425;52.126;20.638;2023-04-12T01:15:33;57343.97;;;-144.78;53.91
55994;BME280;67425;52.126;20.638;2023-04-12T01:18:06;57335.66;;;-144.78;54.05
55994;BME280;67425;52.126;20.638;2023-04-12T01:20:36;57327.34;;;-144.78;52.79
55994;BME280;67425;52.126;20.638;2023-04-12T01:28:34;57348.13;;;-144.78;53.21
55994;BME280;67425;52.126;20.638;2023-04-12T01:31:03;57329.44;;;-144.78;52.43
55994;BME280;67425;52.126;20.638;2023-04-12T01:33:29;57343.97;;;-144.78;53.92
55994;BME280;67425;52.126;20.638;2023-04-12T01:35:59;57323.22;;;-144.78;52.80
55994;BME280;67425;52.126;20.638;2023-04-12T01:38:27;57325.28;;;-144.78;52.34
55994;BME280;67425;52.126;20.638;2023-04-12T01:40:53;57319.06;;;-144.78;53.06
55994;BME280;67425;52.126;20.638;2023-04-12T01:43:19;57335.66;;;-144.78;53.04
55994;BME280;67425;52.126;20.638;2023-04-12T01:45:44;57337.75;;;-144.78;53.76
55994;BME280;67425;52.126;20.638;2023-04-12T01:48:11;57360.59;;;-144.78;55.67
55994;BME280;67425;52.126;20.638;2023-04-12T01:53:22;57368.91;;;-144.78;55.28
55994;BME280;67425;52.126;20.638;2023-04-12T01:55:56;57339.81;;;-144.78;54.96
55994;BME280;67425;52.126;20.638;2023-04-12T01:58:23;57346.06;;;-144.78;54.79
55994;BME280;67425;52.126;20.638;2023-04-12T02:00:49;57343.97;;;-144.78;54.30
55994;BME280;67425;52.126;20.638;2023-04-12T02:03:19;57321.13;;;-144.78;53.33
55994;BME280;67425;52.126;20.638;2023-04-12T02:05:48;57350.19;;;-144.78;54.05
55994;BME280;67425;52.126;20.638;2023-04-12T02:08:15;57360.59;;;-144.78;55.29
55994;BME280;67425;52.126;20.638;2023-04-12T02:10:41;57348.13;;;-144.78;53.94
55994;BME280;67425;52.126;20.638;2023-04-12T02:13:06;57343.97;;;-144.78;54.73
55994;BME280;67425;52.126;20.638;2023-04-12T02:15:32;57362.66;;;-144.78;55.55
55994;BME280;67425;52.126;20.638;2023-04-12T02:17:58;57343.97;;;-144.78;54.43
55994;BME280;67425;52.126;20.638;2023-04-12T02:20:24;57333.59;;;-144.78;54.10
55994;BME280;67425;52.126;20.638;2023-04-12T02:22:51;57337.75;;;-144.78;53.06
55994;BME280;67425;52.126;20.638;2023-04-12T02:25:16;57325.28;;;-144.78;53.11
55994;BME280;67425;52.126;20.638;2023-04-12T02:27:45;57354.34;;;-144.78;54.07
55994;BME280;67425;52.126;20.638;2023-04-12T02:30:11;57335.66;;;-144.78;54.04
55994;BME280;67425;52.126;20.638;2023-04-12T02:32:37;57337.75;;;-144.78;53.27
55994;BME280;67425;52.126;20.638;2023-04-12T02:35:11;57341.91;;;-144.78;54.21
55994;BME280;67425;52.126;20.638;2023-04-12T02:37:37;57325.28;;;-144.78;53.28
55994;BME280;67425;52.126;20.638;2023-04-12T02:40:04;57327.34;;;-144.78;53.42
55994;BME280;67425;52.126;20.638;2023-04-12T02:42:31;57352.28;;;-144.78;52.44
55994;BME280;67425;52.126;20.638;2023-04-12T02:44:56;57346.06;;;-144.78;54.11
55994;BME280;67425;52.126;20.638;2023-04-12T02:47:21;57298.28;;;-144.78;51.60
55994;BME280;67425;52.126;20.638;2023-04-12T02:49:52;57319.06;;;-144.78;51.84
55994;BME280;67425;52.126;20.638;2023-04-12T02:52:17;57319.06;;;-144.78;52.28
55994;BME280;67425;52.126;20.638;2023-04-12T02:54:43;57300.38;;;-144.78;51.50
55994;BME280;67425;52.126;20.638;2023-04-12T02:57:08;57306.59;;;-144.78;51.28
55994;BME280;67425;52.126;20.638;2023-04-12T02:59:35;57310.75;;;-144.78;50.85
55994;BME280;67425;52.126;20.638;2023-04-12T03:02:00;57292.06;;;-144.78;50.03
55994;BME280;67425;52.126;20.638;2023-04-12T03:04:26;57294.13;;;-144.78;50.55
55994;BME280;67425;52.126;20.638;2023-04-12T03:06:57;57285.81;;;-144.78;50.01
55994;BME280;67425;52.126;20.638;2023-04-12T03:09:23;57300.38;;;-144.78;49.89
55994;BME280;67425;52.126;20.638;2023-04-12T03:11:49;57300.38;;;-144.78;51.17
55994;BME280;67425;52.126;20.638;2023-04-12T03:14:15;57327.34;;;-144.78;52.16
55994;BME280;67425;52.126;20.638;2023-04-12T03:16:40;57304.50;;;-144.78;50.42
55994;BME280;67425;52.126;20.638;2023-04-12T03:19:05;57300.38;;;-144.78;49.92
55994;BME280;67425;52.126;20.638;2023-04-12T03:21:31;57368.91;;;-144.78;54.45
55994;BME280;67425;52.126;20.638;2023-04-12T03:23:58;57319.06;;;-144.78;51.49
55994;BME280;67425;52.126;20.638;2023-04-12T03:26:23;57298.28;;;-144.78;51.24
55994;BME280;67425;52.126;20.638;2023-04-12T03:28:53;57289.97;;;-144.78;49.69
55994;BME280;67425;52.126;20.638;2023-04-12T03:31:18;57283.75;;;-144.78;49.93
55994;BME280;67425;52.126;20.638;2023-04-12T03:33:45;57298.28;;;-144.78;50.76
55994;BME280;67425;52.126;20.638;2023-04-12T03:36:11;57298.28;;;-144.78;50.39
55994;BME280;67425;52.126;20.638;2023-04-12T03:38:36;57314.91;;;-144.78;51.49
55994;BME280;67425;52.126;20.638;2023-04-12T03:41:02;57306.59;;;-144.78;50.96
55994;BME280;67425;52.126;20.638;2023-04-12T03:43:27;57335.66;;;-144.78;51.33
55994;BME280;67425;52.126;20.638;2023-04-12T03:45:54;57314.91;;;-144.78;51.76
55994;BME280;67425;52.126;20.638;2023-04-12T03:48:20;57308.66;;;-144.78;51.63
55994;BME280;67425;52.126;20.638;2023-04-12T03:50:45;57314.91;;;-144.78;50.83
55994;BME280;67425;52.126;20.638;2023-04-12T03:53:12;57319.06;;;-144.78;50.45
55994;BME280;67425;52.126;20.638;2023-04-12T03:55:38;57287.91;;;-144.78;51.26
55994;BME280;67425;52.126;20.638;2023-04-12T03:58:04;57304.50;;;-144.78;50.43
55994;BME280;67425;52.126;20.638;2023-04-12T04:00:30;57292.06;;;-144.78;50.10
55994;BME280;67425;52.126;20.638;2023-04-12T04:02:59;57298.28;;;-144.78;50.30
55994;BME280;67425;52.126;20.638;2023-04-12T04:05:28;57314.91;;;-144.78;50.78
55994;BME280;67425;52.126;20.638;2023-04-12T04:07:54;57316.97;;;-144.78;50.79
55994;BME280;67425;52.126;20.638;2023-04-12T04:10:20;57302.44;;;-144.78;50.77
55994;BME280;67425;52.126;20.638;2023-04-12T04:12:45;57294.13;;;-144.78;50.60
55994;BME280;67425;52.126;20.638;2023-04-12T04:15:13;57294.13;;;-144.78;50.08
55994;BME280;67425;52.126;20.638;2023-04-12T04:17:39;57292.06;;;-144.78;49.90
55994;BME280;67425;52.126;20.638;2023-04-12T04:20:05;57296.22;;;-144.78;50.58
55994;BME280;67425;52.126;20.638;2023-04-12T04:22:32;57304.50;;;-144.78;50.44
55994;BME280;67425;52.126;20.638;2023-04-12T04:24:57;57312.81;;;-144.78;51.09
55994;BME280;67425;52.126;20.638;2023-04-12T04:27:23;57306.59;;;-144.78;50.61
55994;BME280;67425;52.126;20.638;2023-04-12T04:29:48;57321.13;;;-144.78;50.69
55994;BME280;67425;52.126;20.638;2023-04-12T04:32:16;57310.75;;;-144.78;50.92
55994;BME280;67425;52.126;20.638;2023-04-12T04:34:41;57308.66;;;-144.78;50.65
55994;BME280;67425;52.126;20.638;2023-04-12T04:37:07;57319.06;;;-144.78;50.77
55994;BME280;67425;52.126;20.638;2023-04-12T04:39:32;57296.22;;;-144.78;50.57
55994;BME280;67425;52.126;20.638;2023-04-12T04:41:58;57279.59;;;-144.78;50.05
55994;BME280;67425;52.126;20.638;2023-04-12T04:44:23;57296.22;;;-144.78;50.12
55994;BME280;67425;52.126;20.638;2023-04-12T04:46:49;57289.97;;;-144.78;48.78
55994;BME280;67425;52.126;20.638;2023-04-12T04:49:15;57281.69;;;-144.78;49.60
55994;BME280;67425;52.126;20.638;2023-04-12T04:51:41;57298.28;;;-144.78;49.89
55994;BME280;67425;52.126;20.638;2023-04-12T04:54:06;57300.38;;;-144.78;50.13
55994;BME280;67425;52.126;20.638;2023-04-12T04:56:31;57279.59;;;-144.78;48.70
55994;BME280;67425;52.126;20.638;2023-04-12T04:58:57;57269.22;;;-144.78;49.48
55994;BME280;67425;52.126;20.638;2023-04-12T05:01:23;57292.06;;;-144.78;49.89
55994;BME280;67425;52.126;20.638;2023-04-12T05:03:52;57300.38;;;-144.78;50.39
55994;BME280;67425;52.126;20.638;2023-04-12T05:06:19;57294.13;;;-144.78;49.63
55994;BME280;67425;52.126;20.638;2023-04-12T05:08:45;57283.75;;;-144.78;48.64
55994;BME280;67425;52.126;20.638;2023-04-12T05:11:10;57298.28;;;-144.78;49.16
55994;BME280;67425;52.126;20.638;2023-04-12T05:13:35;57273.38;;;-144.78;49.40
55994;BME280;67425;52.126;20.638;2023-04-12T05:16:05;57281.69;;;-144.78;49.41
55994;BME280;67425;52.126;20.638;2023-04-12T05:18:30;57333.59;;;-144.78;51.13
55994;BME280;67425;52.126;20.638;2023-04-12T05:21:00;57310.75;;;-144.78;50.44
55994;BME280;67425;52.126;20.638;2023-04-12T05:23:26;57304.50;;;-144.78;51.82
55994;BME280;67425;52.126;20.638;2023-04-12T05:25:52;57244.28;;;-144.78;48.42
55994;BME280;67425;52.126;20.638;2023-04-12T05:28:17;57265.06;;;-144.78;48.99
55994;BME280;67425;52.126;20.638;2023-04-12T05:30:44;57283.75;;;-144.78;48.93
55994;BME280;67425;52.126;20.638;2023-04-12T05:33:09;57285.81;;;-144.78;49.80
55994;BME280;67425;52.126;20.638;2023-04-12T05:35:35;57312.81;;;-144.78;51.64
55994;BME280;67425;52.126;20.638;2023-04-12T05:38:00;57302.44;;;-144.78;50.56
55994;BME280;67425;52.126;20.638;2023-04-12T05:40:26;57296.22;;;-144.78;51.02
55994;BME280;67425;52.126;20.638;2023-04-12T05:42:51;57260.91;;;-144.78;49.79
55994;BME280;67425;52.126;20.638;2023-04-12T05:45:16;57269.22;;;-144.78;48.95
55994;BME280;67425;52.126;20.638;2023-04-12T05:47:42;57273.38;;;-144.78;48.65
55994;BME280;67425;52.126;20.638;2023-04-12T05:50:07;57244.28;;;-144.78;47.98
55994;BME280;67425;52.126;20.638;2023-04-12T05:52:36;57260.91;;;-144.78;47.20
55994;BME280;67425;52.126;20.638;2023-04-12T05:55:01;57298.28;;;-144.78;49.29
55994;BME280;67425;52.126;20.638;2023-04-12T05:57:27;57277.53;;;-144.78;48.67
55994;BME280;67425;52.126;20.638;2023-04-12T05:59:52;57279.59;;;-144.78;48.33
55994;BME280;67425;52.126;20.638;2023-04-12T06:02:19;57252.59;;;-144.78;48.04
55994;BME280;67425;52.126;20.638;2023-04-12T06:04:44;57275.44;;;-144.78;48.04
55994;BME280;67425;52.126;20.638;2023-04-12T06:07:09;57285.81;;;-144.78;48.26
55994;BME280;67425;52.126;20.638;2023-04-12T06:09:35;57246.38;;;-144.78;47.82
55994;BME280;67425;52.126;20.638;2023-04-12T06:12:00;57250.53;;;-144.78;46.65
55994;BME280;67425;52.126;20.638;2023-04-12T06:14:26;57242.22;;;-144.78;47.18
55994;BME280;67425;52.126;20.638;2023-04-12T06:16:52;57250.53;;;-144.78;47.32
55994;BME280;67425;52.126;20.638;2023-04-12T06:19:17;57250.53;;;-144.78;47.16
55994;BME280;67425;52.126;20.638;2023-04-12T06:21:42;57244.28;;;-144.78;46.63
55994;BME280;67425;52.126;20.638;2023-04-12T06:24:08;57227.69;;;-144.78;46.33
55994;BME280;67425;52.126;20.638;2023-04-12T06:26:34;57260.91;;;-144.78;47.20
55994;BME280;67425;52.126;20.638;2023-04-12T06:28:59;57254.69;;;-144.78;47.63
55994;BME280;67425;52.126;20.638;2023-04-12T06:31:24;57233.91;;;-144.78;45.93
55994;BME280;67425;52.126;20.638;2023-04-12T06:33:50;57250.53;;;-144.78;46.45
55994;BME280;67425;52.126;20.638;2023-04-12T06:36:15;57240.13;;;-144.78;46.77
55994;BME280;67425;52.126;20.638;2023-04-12T06:38:41;57262.97;;;-144.78;47.49
55994;BME280;67425;52.126;20.638;2023-04-12T06:41:06;57242.22;;;-144.78;47.49
55994;BME280;67425;52.126;20.638;2023-04-12T06:43:32;57238.06;;;-144.78;46.64
55994;BME280;67425;52.126;20.638;2023-04-12T06:45:57;57238.06;;;-144.78;46.39
55994;BME280;67425;52.126;20.638;2023-04-12T06:48:22;57269.22;;;-144.78;47.90
55994;BME280;67425;52.126;20.638;2023-04-12T06:50:48;57256.75;;;-144.78;46.88
55994;BME280;67425;52.126;20.638;2023-04-12T06:53:13;57262.97;;;-144.78;48.01
55994;BME280;67425;52.126;20.638;2023-04-12T06:55:39;57283.75;;;-144.78;49.65
55994;BME280;67425;52.126;20.638;2023-04-12T06:58:05;57256.75;;;-144.78;47.43
55994;BME280;67425;52.126;20.638;2023-04-12T07:00:30;57267.13;;;-144.78;47.96
55994;BME280;67425;52.126;20.638;2023-04-12T07:02:56;57252.59;;;-144.78;47.70
55994;BME280;67425;52.126;20.638;2023-04-12T07:05:21;57260.91;;;-144.78;47.21
55994;BME280;67425;52.126;20.638;2023-04-12T07:07:47;57236.00;;;-144.78;46.48
55994;BME280;67425;52.126;20.638;2023-04-12T07:10:12;57236.00;;;-144.78;47.08
55994;BME280;67425;52.126;20.638;2023-04-12T07:12:37;57240.13;;;-144.78;46.32
55994;BME280;67425;52.126;20.638;2023-04-12T07:15:03;57258.84;;;-144.78;46.88
55994;BME280;67425;52.126;20.638;2023-04-12T07:17:28;57275.44;;;-144.78;49.43
55994;BME280;67425;52.126;20.638;2023-04-12T07:19:54;57244.28;;;-144.78;47.22
55994;BME280;67425;52.126;20.638;2023-04-12T07:22:20;57283.75;;;-144.78;48.92
55994;BME280;67425;52.126;20.638;2023-04-12T07:24:45;57275.44;;;-144.78;49.26
55994;BME280;67425;52.126;20.638;2023-04-12T07:27:11;57277.53;;;-144.78;49.31
55994;BME280;67425;52.126;20.638;2023-04-12T07:29:36;57252.59;;;-144.78;48.01
55994;BME280;67425;52.126;20.638;2023-04-12T07:32:02;57229.75;;;-144.78;46.77
55994;BME280;67425;52.126;20.638;2023-04-12T07:34:27;57244.28;;;-144.78;46.68
55994;BME280;67425;52.126;20.638;2023-04-12T07:36:53;57246.38;;;-144.78;46.98
55994;BME280;67425;52.126;20.638;2023-04-12T07:39:18;57260.91;;;-144.78;48.69
55994;BME280;67425;52.126;20.638;2023-04-12T07:41:43;57273.38;;;-144.78;48.02
55994;BME280;67425;52.126;20.638;2023-04-12T07:44:11;57260.91;;;-144.78;46.88
55994;BME280;67425;52.126;20.638;2023-04-12T07:46:37;57254.69;;;-144.78;47.32
55994;BME280;67425;52.126;20.638;2023-04-12T07:49:03;57233.91;;;-144.78;47.45
55994;BME280;67425;52.126;20.638;2023-04-12T07:51:28;57265.06;;;-144.78;48.21
55994;BME280;67425;52.126;20.638;2023-04-12T07:53:53;57283.75;;;-144.78;48.40
55994;BME280;67425;52.126;20.638;2023-04-12T07:56:19;57279.59;;;-144.78;48.09
55994;BME280;67425;52.126;20.638;2023-04-12T07:58:44;57285.81;;;-144.78;47.70
55994;BME280;67425;52.126;20.638;2023-04-12T08:01:10;57273.38;;;-144.78;47.23
55994;BME280;67425;52.126;20.638;2023-04-12T08:03:36;57213.16;;;-144.78;45.26
55994;BME280;67425;52.126;20.638;2023-04-12T08:06:01;57260.91;;;-144.78;46.42
55994;BME280;67425;52.126;20.638;2023-04-12T08:08:27;57227.69;;;-144.78;44.86
55994;BME280;67425;52.126;20.638;2023-04-12T08:10:52;57211.06;;;-144.78;43.38
55994;BME280;67425;52.126;20.638;2023-04-12T08:13:18;57211.06;;;-144.78;43.82
55994;BME280;67425;52.126;20.638;2023-04-12T08:15:43;57227.69;;;-144.78;44.85
55994;BME280;67425;52.126;20.638;2023-04-12T08:18:11;57206.91;;;-144.78;44.06
55994;BME280;67425;52.126;20.638;2023-04-12T08:20:36;57236.00;;;-144.78;44.85
55994;BME280;67425;52.126;20.638;2023-04-12T08:23:05;57223.53;;;-144.78;45.15
55994;BME280;67425;52.126;20.638;2023-04-12T08:25:30;57244.28;;;-144.78;45.79
55994;BME280;67425;52.126;20.638;2023-04-12T08:27:55;57223.53;;;-144.78;44.66
55994;BME280;67425;52.126;20.638;2023-04-12T08:30:21;57262.97;;;-144.78;46.88
55994;BME280;67425;52.126;20.638;2023-04-12T08:32:51;57217.31;;;-144.78;43.30
55994;BME280;67425;52.126;20.638;2023-04-12T08:35:16;57192.38;;;-144.78;42.23
55994;BME280;67425;52.126;20.638;2023-04-12T08:37:41;57213.16;;;-144.78;42.08
55994;BME280;67425;52.126;20.638;2023-04-12T08:40:07;57252.59;;;-144.78;43.80
55994;BME280;67425;52.126;20.638;2023-04-12T08:42:34;57206.91;;;-144.78;43.15
55994;BME280;67425;52.126;20.638;2023-04-12T08:45:11;57165.38;;;-144.78;41.73
55994;BME280;67425;52.126;20.638;2023-04-12T08:47:42;57211.06;;;-144.78;41.35
55994;BME280;67425;52.126;20.638;2023-04-12T08:50:10;57196.53;;;-144.78;41.41
55994;BME280;67425;52.126;20.638;2023-04-12T08:52:38;57196.53;;;-144.78;41.66
55994;BME280;67425;52.126;20.638;2023-04-12T08:55:05;57231.84;;;-144.78;42.38
55994;BME280;67425;52.126;20.638;2023-04-12T08:57:31;57213.16;;;-144.78;41.93
55994;BME280;67425;52.126;20.638;2023-04-12T08:59:58;57194.47;;;-144.78;41.29
55994;BME280;67425;52.126;20.638;2023-04-12T09:02:24;57190.31;;;-144.78;40.97
55994;BME280;67425;52.126;20.638;2023-04-12T09:04:49;57175.75;;;-144.78;40.90
55994;BME280;67425;52.126;20.638;2023-04-12T09:07:16;57184.06;;;-144.78;40.54
55994;BME280;67425;52.126;20.638;2023-04-12T09:09:45;57184.06;;;-144.78;41.17
55994;BME280;67425;52.126;20.638;2023-04-12T09:12:12;57196.53;;;-144.78;42.44
55994;BME280;67425;52.126;20.638;2023-04-12T09:14:39;57177.84;;;-144.78;41.31
55994;BME280;67425;52.126;20.638;2023-04-12T09:17:25;57179.91;;;-144.78;40.77
55994;BME280;67425;52.126;20.638;2023-04-12T09:19:51;57159.16;;;-144.78;41.40
55994;BME280;67425;52.126;20.638;2023-04-12T09:22:16;57165.38;;;-144.78;40.93
55994;BME280;67425;52.126;20.638;2023-04-12T09:24:46;57233.91;;;-144.78;42.66
55994;BME280;67425;52.126;20.638;2023-04-12T09:27:12;57231.84;;;-144.78;43.61
55994;BME280;67425;52.126;20.638;2023-04-12T09:29:38;57233.91;;;-144.78;44.13
55994;BME280;67425;52.126;20.638;2023-04-12T09:32:06;57169.53;;;-144.78;41.23
55994;BME280;67425;52.126;20.638;2023-04-12T09:34:33;57186.16;;;-144.78;41.90
55994;BME280;67425;52.126;20.638;2023-04-12T09:37:16;57173.69;;;-144.78;41.76
55994;BME280;67425;52.126;20.638;2023-04-12T09:39:42;57206.91;;;-144.78;41.70
55994;BME280;67425;52.126;20.638;2023-04-12T09:42:09;57190.31;;;-144.78;41.38
55994;BME280;67425;52.126;20.638;2023-04-12T09:44:35;57194.47;;;-144.78;43.35
55994;BME280;67425;52.126;20.638;2023-04-12T09:47:01;57194.47;;;-144.78;42.60
55994;BME280;67425;52.126;20.638;2023-04-12T09:49:39;57188.22;;;-144.78;42.77
55994;BME280;67425;52.126;20.638;2023-04-12T09:52:06;57231.84;;;-144.78;45.31
55994;BME280;67425;52.126;20.638;2023-04-12T09:54:36;57231.84;;;-144.78;43.85
55994;BME280;67425;52.126;20.638;2023-04-12T09:57:05;57236.00;;;-144.78;43.73
55994;BME280;67425;52.126;20.638;2023-04-12T09:59:35;57190.31;;;-144.78;41.70
55994;BME280;67425;52.126;20.638;2023-04-12T10:02:04;57159.16;;;-144.78;40.39
55994;BME280;67425;52.126;20.638;2023-04-12T10:04:31;57202.75;;;-144.78;41.86
55994;BME280;67425;52.126;20.638;2023-04-12T10:06:59;57161.22;;;-144.78;40.87
55994;BME280;67425;52.126;20.638;2023-04-12T10:09:25;57186.16;;;-144.78;41.89
55994;BME280;67425;52.126;20.638;2023-04-12T10:11:52;57188.22;;;-144.78;40.63
55994;BME280;67425;52.126;20.638;2023-04-12T10:14:19;57179.91;;;-144.78;39.84
55994;BME280;67425;52.126;20.638;2023-04-12T10:16:45;57202.75;;;-144.78;41.46
55994;BME280;67425;52.126;20.638;2023-04-12T10:19:13;57177.84;;;-144.78;40.48
55994;BME280;67425;52.126;20.638;2023-04-12T10:21:39;57173.69;;;-144.78;40.07
55994;BME280;67425;52.126;20.638;2023-04-12T10:24:04;57188.22;;;-144.78;41.20
55994;BME280;67425;52.126;20.638;2023-04-12T10:26:31;57204.84;;;-144.78;41.52
55994;BME280;67425;52.126;20.638;2023-04-12T10:31:47;57161.22;;;-144.78;40.93
55994;BME280;67425;52.126;20.638;2023-04-12T10:34:14;57165.38;;;-144.78;40.57
55994;BME280;67425;52.126;20.638;2023-04-12T10:36:59;57184.06;;;-144.78;40.77
55994;BME280;67425;52.126;20.638;2023-04-12T10:39:42;57188.22;;;-144.78;41.20
55994;BME280;67425;52.126;20.638;2023-04-12T10:42:24;57213.16;;;-144.78;41.52
55994;BME280;67425;52.126;20.638;2023-04-12T10:44:53;57148.78;;;-144.78;40.40
55994;BME280;67425;52.126;20.638;2023-04-12T10:55:34;57173.69;;;-144.78;39.92
55994;BME280;67425;52.126;20.638;2023-04-12T10:58:00;57148.78;;;-144.78;38.96
55994;BME280;67425;52.126;20.638;2023-04-12T11:03:20;57144.63;;;-144.78;39.27
55994;BME280;67425;52.126;20.638;2023-04-12T11:08:26;57136.31;;;-144.78;39.27
55994;BME280;67425;52.126;20.638;2023-04-12T11:10:58;57148.78;;;-144.78;39.17
55994;BME280;67425;52.126;20.638;2023-04-12T11:13:24;57157.06;;;-144.78;40.09
55994;BME280;67425;52.126;20.638;2023-04-12T11:15:54;57150.84;;;-144.78;38.09
55994;BME280;67425;52.126;20.638;2023-04-12T11:18:22;57148.78;;;-144.78;38.96
55994;BME280;67425;52.126;20.638;2023-04-12T11:20:50;57194.47;;;-144.78;40.60
55994;BME280;67425;52.126;20.638;2023-04-12T11:23:16;57206.91;;;-144.78;40.87
55994;BME280;67425;52.126;20.638;2023-04-12T11:25:42;57215.22;;;-144.78;41.60
55994;BME280;67425;52.126;20.638;2023-04-12T11:28:08;57204.84;;;-144.78;40.99
55994;BME280;67425;52.126;20.638;2023-04-12T11:30:33;57173.69;;;-144.78;39.39
55994;BME280;67425;52.126;20.638;2023-04-12T11:32:58;57188.22;;;-144.78;39.90
55994;BME280;67425;52.126;20.638;2023-04-12T11:35:27;57211.06;;;-144.78;41.36
55994;BME280;67425;52.126;20.638;2023-04-12T11:37:54;57177.84;;;-144.78;39.49
55994;BME280;67425;52.126;20.638;2023-04-12T11:40:21;57150.84;;;-144.78;39.55
55994;BME280;67425;52.126;20.638;2023-04-12T11:42:47;57159.16;;;-144.78;40.16
55994;BME280;67425;52.126;20.638;2023-04-12T11:45:17;57169.53;;;-144.78;39.87
55994;BME280;67425;52.126;20.638;2023-04-12T11:47:44;57148.78;;;-144.78;39.96
55994;BME280;67425;52.126;20.638;2023-04-12T11:50:10;57173.69;;;-144.78;40.19
55994;BME280;67425;52.126;20.638;2023-04-12T11:52:35;57171.63;;;-144.78;39.71
55994;BME280;67425;52.126;20.638;2023-04-12T11:55:04;57146.69;;;-144.78;39.01
55994;BME280;67425;52.126;20.638;2023-04-12T11:57:35;57132.16;;;-144.78;38.53
55994;BME280;67425;52.126;20.638;2023-04-12T12:00:00;57206.91;;;-144.78;40.86
55994;BME280;67425;52.126;20.638;2023-04-12T12:02:26;57221.44;;;-144.78;42.81
55994;BME280;67425;52.126;20.638;2023-04-12T12:04:52;57215.22;;;-144.78;42.80
55994;BME280;67425;52.126;20.638;2023-04-12T12:07:20;57198.59;;;-144.78;42.71
55994;BME280;67425;52.126;20.638;2023-04-12T12:09:47;57190.31;;;-144.78;41.86
55994;BME280;67425;52.126;20.638;2023-04-12T12:12:13;57194.47;;;-144.78;41.57
55994;BME280;67425;52.126;20.638;2023-04-12T12:14:39;57169.53;;;-144.78;42.14
55994;BME280;67425;52.126;20.638;2023-04-12T12:17:12;57155.00;;;-144.78;40.56
55994;BME280;67425;52.126;20.638;2023-04-12T12:19:39;57202.75;;;-144.78;41.54
55994;BME280;67425;52.126;20.638;2023-04-12T12:22:15;57173.69;;;-144.78;40.59
55994;BME280;67425;52.126;20.638;2023-04-12T12:24:59;57194.47;;;-144.78;41.31
55994;BME280;67425;52.126;20.638;2023-04-12T12:27:36;57161.22;;;-144.78;40.08
55994;BME280;67425;52.126;20.638;2023-04-12T12:30:05;57173.69;;;-144.78;42.02
55994;BME280;67425;52.126;20.638;2023-04-12T12:32:32;57186.16;;;-144.78;40.90
55994;BME280;67425;52.126;20.638;2023-04-12T12:34:58;57196.53;;;-144.78;42.11
55994;BME280;67425;52.126;20.638;2023-04-12T12:37:27;57171.63;;;-144.78;41.33
55994;BME280;67425;52.126;20.638;2023-04-12T12:40:07;57155.00;;;-144.78;40.13
55994;BME280;67425;52.126;20.638;2023-04-12T12:43:07;57136.31;;;-144.78;39.39
55994;BME280;67425;52.126;20.638;2023-04-12T12:45:41;57159.16;;;-144.78;38.69
55994;BME280;67425;52.126;20.638;2023-04-12T12:48:06;57150.84;;;-144.78;38.06
55994;BME280;67425;52.126;20.638;2023-04-12T12:50:33;57169.53;;;-144.78;39.75
55994;BME280;67425;52.126;20.638;2023-04-12T12:53:01;57138.38;;;-144.78;39.14
55994;BME280;67425;52.126;20.638;2023-04-12T12:55:27;57115.53;;;-144.78;37.48
55994;BME280;67425;52.126;20.638;2023-04-12T12:57:55;57130.09;;;-144.78;37.02